Time;durP1;ratioP1;P1;durP2;ratioP2;P2;SDS_P1;SDS_P2;PMS_P1;PMS_P2;Temp;Humidity;BMP_temperature;BMP_pressure;BME280_temperature;BME280_humidity;BME280_pressure;Samples;Min_cycle;Max_cycle;Signal;HPM_P1;HPM_P2
2024/03/05 00:01:56;;;;;;;35.63;20.77;;;;;;;7.65;80.73;98187.44;4947307;28;103510;-62
2024/03/05 00:04:25;;;;;;;50.53;26.13;;;;;;;7.55;79.79;98178.84;4932819;28;103761;-63
2024/03/05 00:06:53;;;;;;;39.22;22.20;;;;;;;7.56;79.79;98183.09;4952293;28;103751;-63
2024/03/05 00:09:22;;;;;;;49.10;25.00;;;;;;;7.58;80.16;98189.06;4952494;28;103186;-62
2024/03/05 00:11:51;;;;;;;35.63;19.77;;;;;;;7.71;79.69;98189.41;4953238;28;103396;-63
2024/03/05 00:14:19;;;;;;;45.72;23.55;;;;;;;7.70;79.69;98185.13;4952511;28;103054;-63
2024/03/05 00:16:48;;;;;;;46.55;26.15;;;;;;;7.54;79.42;98187.72;4957270;28;102850;-63
2024/03/05 00:19:18;;;;;;;48.40;24.45;;;;;;;7.34;80.39;98192.47;4932396;28;104426;-62
2024/03/05 00:21:47;;;;;;;36.70;21.63;;;;;;;7.39;81.51;98187.50;4932536;28;105934;-63
2024/03/05 00:24:15;;;;;;;58.47;25.33;;;;;;;7.40;81.09;98195.28;4952821;28;103680;-62
2024/03/05 00:26:43;;;;;;;44.03;24.92;;;;;;;7.42;80.86;98198.56;4955554;28;102773;-63
2024/03/05 00:29:11;;;;;;;39.05;21.27;;;;;;;7.41;81.24;98204.81;4948073;28;103289;-62
2024/03/05 00:31:40;;;;;;;49.28;24.88;;;;;;;7.46;80.45;98202.53;4934580;28;104773;-63
2024/03/05 00:34:08;;;;;;;42.17;21.75;;;;;;;7.46;80.35;98205.16;4950908;28;102734;-62
2024/03/05 00:36:38;;;;;;;51.78;26.20;;;;;;;7.44;80.34;98206.31;4955304;28;103969;-62
2024/03/05 00:39:06;;;;;;;46.65;24.83;;;;;;;7.58;80.75;98196.97;4925129;28;104412;-62
2024/03/05 00:41:34;;;;;;;47.47;25.65;;;;;;;7.61;80.21;98191.34;4930681;28;110710;-62
2024/03/05 00:44:04;;;;;;;46.45;23.60;;;;;;;7.64;79.57;98197.13;4949602;28;102773;-63
2024/03/05 00:46:33;;;;;;;40.70;20.83;;;;;;;7.64;79.68;98193.69;4949949;28;103004;-63
2024/03/05 00:49:01;;;;;;;51.95;27.55;;;;;;;7.55;79.82;98203.38;4951022;28;105482;-63
2024/03/05 00:51:28;;;;;;;42.85;22.70;;;;;;;7.66;80.23;98199.59;4946944;28;103856;-62
2024/03/05 00:53:58;;;;;;;48.42;25.45;;;;;;;7.71;79.98;98207.84;4949148;28;102642;-63
2024/03/05 00:56:26;;;;;;;39.88;24.55;;;;;;;7.72;79.36;98203.44;4948044;28;102804;-62
2024/03/05 00:58:54;;;;;;;48.85;27.08;;;;;;;7.73;79.04;98199.78;4954087;28;104281;-63
2024/03/05 01:01:22;;;;;;;43.30;22.85;;;;;;;7.78;78.92;98202.75;4930348;28;105216;-62
2024/03/05 01:03:50;;;;;;;38.78;21.80;;;;;;;7.85;79.27;98202.94;4953226;28;102586;-62
2024/03/05 01:06:20;;;;;;;38.55;20.98;;;;;;;7.83;79.04;98207.56;4944897;28;103105;-63
2024/03/05 01:08:49;;;;;;;47.58;24.85;;;;;;;7.88;79.06;98202.63;4945483;28;105873;-64
2024/03/05 01:11:18;;;;;;;38.65;23.60;;;;;;;7.89;79.20;98204.28;4956110;28;103284;-62
2024/03/05 01:13:46;;;;;;;40.40;22.75;;;;;;;7.88;79.11;98195.53;4936769;28;103770;-62
2024/03/05 01:16:14;;;;;;;44.50;23.27;;;;;;;7.89;78.60;98204.28;4947365;28;102838;-63
2024/03/05 01:18:42;;;;;;;42.35;22.20;;;;;;;7.90;78.67;98200.63;4948536;28;103287;-63
2024/03/05 01:21:10;;;;;;;50.95;25.63;;;;;;;7.91;79.10;98207.56;4931520;28;103614;-63
2024/03/05 01:23:38;;;;;;;47.45;24.58;;;;;;;7.88;78.83;98206.06;4952295;28;103669;-63
2024/03/05 01:26:07;;;;;;;37.50;21.77;;;;;;;7.88;78.70;98202.63;4951202;28;103597;-62
2024/03/05 01:28:37;;;;;;;37.30;22.02;;;;;;;7.89;79.17;98199.81;4956964;28;108063;-62
2024/03/05 01:31:04;;;;;;;38.17;21.38;;;;;;;7.91;79.16;98208.41;4946703;28;103800;-63
2024/03/05 01:33:33;;;;;;;40.13;21.83;;;;;;;7.92;78.74;98201.31;4931647;28;104074;-63
2024/03/05 01:36:01;;;;;;;37.03;22.02;;;;;;;7.92;78.81;98210.03;4943455;28;102628;-63
2024/03/05 01:38:30;;;;;;;43.50;22.15;;;;;;;7.94;78.84;98201.97;4955100;28;103951;-62
2024/03/05 01:40:58;;;;;;;40.63;23.02;;;;;;;7.93;78.75;98200.31;4953480;28;104052;-62
2024/03/05 01:43:27;;;;;;;41.90;23.63;;;;;;;7.92;78.68;98194.22;4957250;28;104339;-63
2024/03/05 01:45:57;;;;;;;42.05;22.00;;;;;;;7.89;79.00;98207.72;4951016;28;102831;-63
2024/03/05 01:48:30;;;;;;;41.83;20.73;;;;;;;7.88;78.95;98195.53;4933530;28;106692;-62
2024/03/05 01:50:58;;;;;;;38.38;20.90;;;;;;;7.91;79.04;98194.38;4936815;28;105665;-63
2024/03/05 01:53:27;;;;;;;43.72;24.83;;;;;;;7.85;78.34;98202.94;4955046;28;102732;-63
2024/03/05 01:55:56;;;;;;;41.70;22.40;;;;;;;7.91;78.66;98191.75;4954420;28;102775;-63
2024/03/05 01:58:25;;;;;;;44.83;23.05;;;;;;;7.94;78.51;98199.34;4932782;28;105809;-63
2024/03/05 02:00:53;;;;;;;41.85;22.48;;;;;;;7.96;78.19;98198.19;4951541;28;103423;-63
2024/03/05 02:03:25;;;;;;;50.25;27.33;;;;;;;7.84;79.01;98202.13;4949434;28;104049;-63
2024/03/05 02:05:58;;;;;;;42.72;22.42;;;;;;;7.90;78.73;98200.63;4952524;28;102747;-62
2024/03/05 02:08:27;;;;;;;48.60;25.40;;;;;;;7.86;79.15;98199.31;4929500;28;106205;-62
2024/03/05 02:10:56;;;;;;;50.15;24.80;;;;;;;7.88;78.76;98207.91;4948308;28;103295;-62
2024/03/05 02:13:26;;;;;;;42.47;24.38;;;;;;;7.91;79.16;98208.41;4929129;28;103931;-63
2024/03/05 02:15:57;;;;;;;41.42;22.92;;;;;;;7.94;78.36;98199.34;4947259;28;102780;-63
2024/03/05 02:18:26;;;;;;;53.50;26.15;;;;;;;7.96;78.62;98206.09;4950720;28;103896;-62
2024/03/05 02:20:55;;;;;;;45.65;25.55;;;;;;;7.92;78.12;98209.22;4931650;28;102671;-62
2024/03/05 02:23:24;;;;;;;48.63;25.75;;;;;;;7.80;79.13;98206.06;4948305;28;103207;-62
2024/03/05 02:25:52;;;;;;;49.08;27.88;;;;;;;7.68;79.98;98202.91;4939093;28;102811;-63
2024/03/05 02:28:20;;;;;;;42.65;23.20;;;;;;;7.77;79.12;98204.59;4930073;28;104374;-62
2024/03/05 02:30:48;;;;;;;42.90;23.42;;;;;;;7.83;79.76;98200.47;4955386;28;103809;-62
2024/03/05 02:33:17;;;;;;;44.88;24.55;;;;;;;7.76;79.17;98200.28;4934507;28;103453;-63
2024/03/05 02:35:47;;;;;;;46.13;24.23;;;;;;;7.77;79.41;98207.22;4953103;28;102697;-63
2024/03/05 02:38:15;;;;;;;45.30;25.27;;;;;;;7.75;79.68;98203.09;4952667;28;104497;-63
2024/03/05 02:40:45;;;;;;;41.33;23.08;;;;;;;7.75;79.52;98197.81;4952729;28;103247;-63
2024/03/05 02:43:13;;;;;;;40.95;22.27;;;;;;;7.79;79.39;98205.25;4953306;28;102722;-63
2024/03/05 02:45:41;;;;;;;44.80;23.50;;;;;;;7.84;79.23;98199.47;4954089;28;102634;-63
2024/03/05 02:48:09;;;;;;;40.88;22.08;;;;;;;7.84;78.62;98190.75;4936455;28;106364;-63
2024/03/05 02:50:37;;;;;;;39.42;21.52;;;;;;;7.88;79.12;98192.06;4952070;28;108273;-63
2024/03/05 02:53:06;;;;;;;48.83;24.05;;;;;;;7.90;79.06;98198.00;4951239;28;102737;-63
2024/03/05 02:55:37;;;;;;;48.63;24.33;;;;;;;7.79;79.05;98209.69;4949113;28;104065;-62
2024/03/05 02:58:07;;;;;;;44.95;23.90;;;;;;;7.82;78.68;98205.91;4951374;28;103304;-63
2024/03/05 03:00:37;;;;;;;49.45;25.75;;;;;;;7.76;79.37;98205.56;4933567;28;109712;-63
2024/03/05 03:03:06;;;;;;;52.70;27.90;;;;;;;7.67;79.48;98198.63;4945691;28;103048;-63
2024/03/05 03:05:37;;;;;;;45.70;24.92;;;;;;;7.70;79.90;98200.94;4927082;28;103878;-63
2024/03/05 03:08:05;;;;;;;53.38;27.75;;;;;;;7.52;79.88;98200.22;4951759;28;103630;-63
2024/03/05 03:10:33;;;;;;;53.25;29.02;;;;;;;7.45;80.48;98197.41;4934735;28;106357;-63
2024/03/05 03:13:02;;;;;;;43.00;23.90;;;;;;;7.59;80.31;98202.06;4946078;28;102724;-63
2024/03/05 03:15:32;;;;;;;41.42;23.58;;;;;;;7.65;80.21;98197.97;4947266;28;102724;-63
2024/03/05 03:18:00;;;;;;;51.92;29.27;;;;;;;7.36;80.24;98193.94;4948059;28;103274;-63
2024/03/05 03:20:32;;;;;;;54.15;27.83;;;;;;;7.36;81.51;98183.38;4928451;28;105163;-63
2024/03/05 03:23:00;;;;;;;44.65;24.00;;;;;;;7.45;80.75;98193.00;4944511;28;102849;-63
2024/03/05 03:25:30;;;;;;;45.70;24.08;;;;;;;7.58;81.10;98191.69;4934045;28;103046;-66
2024/03/05 03:28:02;;;;;;;43.33;23.45;;;;;;;7.62;80.18;98190.38;4938163;28;103682;-66
2024/03/05 03:30:32;;;;;;;43.90;24.10;;;;;;;7.67;80.24;98196.00;4939526;28;107428;-67
2024/03/05 03:33:00;;;;;;;43.38;25.02;;;;;;;7.66;79.88;98198.78;4956836;28;102916;-65
2024/03/05 03:35:30;;;;;;;40.83;23.33;;;;;;;7.69;80.17;98209.84;4954823;28;102802;-65
2024/03/05 03:37:58;;;;;;;47.58;24.90;;;;;;;7.72;80.33;98204.25;4950269;28;103373;-66
2024/03/05 03:40:26;;;;;;;46.80;26.00;;;;;;;7.72;79.50;98209.50;4949313;28;103883;-62
2024/03/05 03:42:54;;;;;;;50.10;27.60;;;;;;;7.62;79.73;98214.94;4930728;28;102950;-63
2024/03/05 03:45:22;;;;;;;49.10;25.73;;;;;;;7.68;79.55;98221.38;4937398;28;102637;-62
2024/03/05 03:47:51;;;;;;;46.20;25.90;;;;;;;7.67;80.09;98214.44;4947133;28;103368;-63
2024/03/05 03:50:19;;;;;;;46.33;26.17;;;;;;;7.61;79.64;98220.34;4951131;28;103162;-62
2024/03/05 03:52:50;;;;;;;42.88;24.77;;;;;;;7.59;80.39;98227.63;4954630;28;102765;-62
2024/03/05 03:55:20;;;;;;;41.22;23.23;;;;;;;7.62;80.29;98224.66;4953709;28;102647;-63
2024/03/05 03:57:48;;;;;;;52.75;27.08;;;;;;;7.42;80.23;98224.91;4928660;28;105093;-63
2024/03/05 04:00:18;;;;;;;51.10;27.63;;;;;;;7.22;80.80;98226.16;4938485;28;106211;-66
2024/03/05 04:02:47;;;;;;;49.38;27.15;;;;;;;7.21;81.37;98232.41;4952973;28;104963;-65
2024/03/05 04:05:17;;;;;;;55.45;27.98;;;;;;;7.11;82.04;98235.16;4958216;28;102680;-66
2024/03/05 04:07:47;;;;;;;50.22;28.40;;;;;;;7.24;81.77;98232.09;4954682;28;103206;-65
2024/03/05 04:10:15;;;;;;;48.75;27.13;;;;;;;7.24;81.64;98229.47;4939207;28;104818;-63
2024/03/05 04:12:44;;;;;;;49.47;27.90;;;;;;;7.10;81.86;98231.72;4950964;28;102898;-63
2024/03/05 04:15:13;;;;;;;51.80;27.25;;;;;;;7.00;82.10;98232.81;4946432;28;102703;-63
2024/03/05 04:17:41;;;;;;;58.50;29.42;;;;;;;6.86;83.21;98228.94;4958965;28;103197;-63
2024/03/05 04:20:14;;;;;;;56.63;29.10;;;;;;;6.95;82.95;98233.28;4939656;28;105124;-62
2024/03/05 04:22:44;;;;;;;53.55;27.20;;;;;;;6.96;82.47;98230.47;4954705;28;102685;-62
2024/03/05 04:25:13;;;;;;;52.75;26.95;;;;;;;6.97;82.48;98234.78;4955936;28;103846;-62
2024/03/05 04:27:45;;;;;;;44.65;24.85;;;;;;;7.08;82.43;98238.94;4930410;28;106161;-62
2024/03/05 04:30:15;;;;;;;44.00;21.83;;;;;;;7.23;81.77;98235.69;4937060;28;103597;-62
2024/03/05 04:32:46;;;;;;;49.50;26.63;;;;;;;7.31;81.65;98238.38;4955040;28;102801;-62
2024/03/05 04:35:27;;;;;;;58.97;28.65;;;;;;;7.02;81.77;98241.38;4938246;28;102759;-62
2024/03/05 04:37:56;;;;;;;59.85;30.08;;;;;;;6.95;82.24;98236.72;4957334;28;103131;-62
2024/03/05 04:40:29;;;;;;;47.80;25.42;;;;;;;7.07;82.68;98247.00;4934455;28;105352;-65
2024/03/05 04:42:57;;;;;;;47.13;25.50;;;;;;;7.19;82.16;98237.84;4956734;28;102746;-66
2024/03/05 04:45:26;;;;;;;48.25;27.70;;;;;;;7.13;81.44;98235.84;4955523;28;102895;-65
2024/03/05 04:47:54;;;;;;;49.67;24.75;;;;;;;7.23;82.19;98247.09;4941753;28;109814;-65
2024/03/05 04:50:22;;;;;;;45.05;23.25;;;;;;;7.30;81.34;98242.81;4961009;28;104929;-64
2024/03/05 04:52:52;;;;;;;40.17;21.65;;;;;;;7.38;80.94;98244.66;4961393;28;102717;-65
2024/03/05 04:55:22;;;;;;;39.45;21.58;;;;;;;7.43;80.40;98252.09;4959686;28;103704;-65
2024/03/05 04:57:51;;;;;;;46.05;23.08;;;;;;;7.41;80.75;98244.34;4960014;28;103404;-66
2024/03/05 05:00:23;;;;;;;45.60;24.95;;;;;;;7.45;80.67;98245.69;4960341;28;103838;-65
2024/03/05 05:02:52;;;;;;;43.53;24.95;;;;;;;7.36;80.64;98241.34;4944221;28;103994;-65
2024/03/05 05:05:24;;;;;;;51.72;28.50;;;;;;;7.26;81.29;98249.38;4936984;28;102788;-65
2024/03/05 05:07:56;;;;;;;46.92;26.63;;;;;;;7.25;81.51;98246.91;4957863;28;103549;-66
2024/03/05 05:10:25;;;;;;;53.90;28.88;;;;;;;7.19;81.81;98245.75;4961585;28;103259;-66
2024/03/05 05:12:53;;;;;;;54.35;27.15;;;;;;;7.19;82.18;98244.91;4942439;28;102847;-66
2024/03/05 05:15:21;;;;;;;45.70;24.40;;;;;;;7.23;81.47;98248.88;4961672;28;102852;-65
2024/03/05 05:17:51;;;;;;;43.28;24.42;;;;;;;7.30;82.07;98242.00;4960960;28;103409;-65
2024/03/05 05:20:20;;;;;;;41.70;23.95;;;;;;;7.36;81.11;98245.81;4963540;28;102775;-66
2024/03/05 05:22:48;;;;;;;55.70;28.00;;;;;;;7.33;81.45;98246.13;4940584;28;102722;-65
2024/03/05 05:25:21;;;;;;;44.78;24.02;;;;;;;7.39;80.95;98246.31;4956931;28;102662;-65
2024/03/05 05:27:51;;;;;;;42.03;23.42;;;;;;;7.44;80.98;98249.31;4958442;28;103285;-65
2024/03/05 05:30:21;;;;;;;46.58;24.83;;;;;;;7.46;81.01;98246.50;4940851;28;105276;-65
2024/03/05 05:32:49;;;;;;;45.25;24.35;;;;;;;7.47;81.14;98253.44;4959633;28;102745;-66
2024/03/05 05:35:17;;;;;;;46.10;24.45;;;;;;;7.49;80.73;98251.44;4960696;28;102621;-65
2024/03/05 05:37:45;;;;;;;40.00;24.00;;;;;;;7.52;81.30;98248.50;4957005;28;103258;-62
2024/03/05 05:40:16;;;;;;;44.13;23.48;;;;;;;7.54;80.74;98261.53;4953053;28;103360;-62
2024/03/05 05:42:49;;;;;;;46.63;24.30;;;;;;;7.58;81.00;98254.94;4954924;28;103014;-63
2024/03/05 05:45:23;;;;;;;45.35;23.83;;;;;;;7.59;80.72;98252.16;4940986;28;102751;-67
2024/03/05 05:47:53;;;;;;;41.30;22.88;;;;;;;7.64;80.88;98259.59;4955442;28;103246;-63
2024/03/05 05:50:25;;;;;;;47.85;25.15;;;;;;;7.59;80.49;98261.88;4954402;28;103249;-64
2024/03/05 05:52:54;;;;;;;43.47;23.48;;;;;;;7.58;80.50;98249.66;4951049;28;102988;-62
2024/03/05 05:55:24;;;;;;;46.92;24.92;;;;;;;7.61;80.42;98255.47;4954198;28;103682;-62
2024/03/05 05:57:54;;;;;;;43.55;24.00;;;;;;;7.60;80.67;98260.91;4945975;28;103153;-63
2024/03/05 06:00:32;;;;;;;39.40;20.73;;;;;;;7.62;80.59;98261.53;4950480;28;103311;-63
2024/03/05 06:03:04;;;;;;;37.65;21.17;;;;;;;7.61;81.04;98262.53;4949996;28;102926;-62
2024/03/05 06:05:35;;;;;;;41.03;22.45;;;;;;;7.59;81.30;98261.88;4957606;28;102737;-62
2024/03/05 06:08:04;;;;;;;43.38;22.38;;;;;;;7.57;80.83;98263.81;4954430;28;103297;-62
2024/03/05 06:10:32;;;;;;;44.40;21.83;;;;;;;7.57;80.87;98267.31;4951656;28;103270;-63
2024/03/05 06:13:01;;;;;;;41.63;23.35;;;;;;;7.53;81.48;98270.41;4919176;28;102841;-63
2024/03/05 06:15:30;;;;;;;40.72;23.73;;;;;;;7.47;81.75;98262.16;4911424;28;103279;-63
2024/03/05 06:17:59;;;;;;;46.53;23.50;;;;;;;7.44;81.59;98274.81;4933328;28;103569;-63
2024/03/05 06:20:28;;;;;;;45.90;24.00;;;;;;;7.45;81.88;98279.09;4944107;28;105517;-65
2024/03/05 06:22:56;;;;;;;44.55;24.35;;;;;;;7.38;82.14;98280.72;4947496;28;103463;-67
2024/03/05 06:25:26;;;;;;;44.75;24.23;;;;;;;7.34;82.00;98285.47;4948055;28;104277;-65
2024/03/05 06:27:56;;;;;;;54.08;27.35;;;;;;;7.13;82.55;98273.53;4948774;28;103312;-63
2024/03/05 06:30:28;;;;;;;46.20;23.77;;;;;;;7.16;83.30;98282.09;4946017;28;103437;-63
2024/03/05 06:32:58;;;;;;;51.53;24.98;;;;;;;7.14;83.43;98292.81;4945814;28;102638;-64
2024/03/05 06:35:28;;;;;;;46.30;24.60;;;;;;;7.14;83.00;98287.53;4949432;28;102781;-63
2024/03/05 06:38:00;;;;;;;44.13;22.13;;;;;;;7.07;82.95;98295.22;4937622;28;103388;-63
2024/03/05 06:44:09;;;;;;;51.60;24.40;;;;;;;7.06;83.12;98298.00;4935669;28;104003;-66
2024/03/05 06:46:41;;;;;;;50.70;23.98;;;;;;;7.13;82.81;98299.84;4943707;28;102677;-67
2024/03/05 06:49:14;;;;;;;45.47;22.88;;;;;;;7.13;82.98;98291.97;4944516;28;102779;-66
2024/03/05 06:51:53;;;;;;;45.80;23.42;;;;;;;7.20;82.96;98299.25;4910801;28;103821;-66
2024/03/05 06:57:36;;;;;;;37.10;19.58;;;;;;;7.41;82.04;98302.31;4940500;28;103043;-65
2024/03/05 07:00:15;;;;;;;39.35;20.30;;;;;;;7.50;82.03;98299.72;4936665;28;103462;-66
2024/03/05 07:02:43;;;;;;;42.83;23.13;;;;;;;7.45;81.84;98298.38;4918152;28;109738;-66
2024/03/05 07:05:13;;;;;;;35.05;20.20;;;;;;;7.51;82.16;98301.38;4930032;28;103805;-66
2024/03/05 07:07:41;;;;;;;39.38;21.38;;;;;;;7.52;81.16;98297.75;4918820;28;102999;-66
2024/03/05 07:10:14;;;;;;;43.92;22.17;;;;;;;7.50;81.81;98305.00;4937619;28;103016;-66
2024/03/05 07:12:45;;;;;;;46.47;23.73;;;;;;;7.28;82.51;98304.53;4921610;28;103275;-67
2024/03/05 07:15:20;;;;;;;47.05;24.42;;;;;;;7.24;82.75;98306.66;4930641;28;102710;-63
2024/03/05 07:17:55;;;;;;;39.70;22.15;;;;;;;7.36;81.91;98309.84;4911824;28;103312;-63
2024/03/05 07:20:33;;;;;;;44.45;23.90;;;;;;;7.42;82.39;98309.22;4920069;28;103961;-62
2024/03/05 07:23:59;;;;;;;46.65;23.98;;;;;;;7.41;82.39;98304.94;4947844;28;103334;-62
2024/03/05 07:34:02;;;;;;;41.65;21.35;;;;;;;7.42;82.67;98314.50;4947476;28;103104;-64
2024/03/05 07:36:33;;;;;;;41.40;21.83;;;;;;;7.52;81.66;98313.56;4935576;28;103530;-62
2024/03/05 07:39:01;;;;;;;39.22;21.23;;;;;;;7.53;81.97;98315.22;4947751;28;103938;-63
2024/03/05 07:41:29;;;;;;;41.00;20.80;;;;;;;7.62;81.30;98319.53;4949626;28;103367;-63
2024/03/05 07:44:02;;;;;;;38.80;20.13;;;;;;;7.70;81.67;98327.47;4941125;28;103629;-63
2024/03/05 07:46:32;;;;;;;44.13;23.33;;;;;;;7.62;80.91;98327.44;4948670;28;103727;-63
2024/03/05 07:49:00;;;;;;;44.90;23.73;;;;;;;7.59;81.86;98323.31;4950605;28;103279;-60
2024/03/05 07:51:32;;;;;;;45.92;25.13;;;;;;;7.64;81.59;98322.84;4931859;28;103517;-62
2024/03/05 07:54:14;;;;;;;36.45;20.58;;;;;;;7.66;80.97;98318.22;4950068;28;103292;-62
2024/03/05 07:56:42;;;;;;;35.22;20.27;;;;;;;7.75;81.42;98333.09;4950183;28;103579;-62
2024/03/05 07:59:11;;;;;;;41.03;21.50;;;;;;;7.86;81.44;98333.78;4942596;28;102742;-63
2024/03/05 08:01:40;;;;;;;41.75;22.30;;;;;;;7.86;80.99;98333.78;4920532;28;102762;-63
2024/03/05 08:04:09;;;;;;;36.22;19.63;;;;;;;7.87;80.85;98332.81;4899410;28;103747;-62
2024/03/05 08:06:39;;;;;;;39.83;22.75;;;;;;;7.87;81.16;98341.53;4932165;28;103105;-62
2024/03/05 08:09:07;;;;;;;47.42;23.63;;;;;;;7.79;80.37;98337.06;4943501;28;103059;-60
2024/03/05 08:11:36;;;;;;;40.75;22.45;;;;;;;7.76;81.34;98340.00;4953446;28;102775;-60
2024/03/05 08:14:07;;;;;;;35.15;20.88;;;;;;;7.67;81.24;98342.78;4954438;28;103380;-60
2024/03/05 08:16:37;;;;;;;47.63;23.30;;;;;;;7.20;82.02;98336.94;4933499;28;111414;-60
2024/03/05 08:19:05;;;;;;;46.90;24.25;;;;;;;6.86;84.21;98342.97;4951487;28;104490;-61
2024/03/05 08:21:34;;;;;;;52.35;26.92;;;;;;;6.87;83.57;98349.06;4944492;28;102776;-61
2024/03/05 08:24:05;;;;;;;45.85;24.15;;;;;;;6.87;84.59;98346.44;4922104;28;106298;-61
2024/03/05 08:26:33;;;;;;;48.35;26.10;;;;;;;6.93;84.90;98356.31;4947887;28;103307;-61
2024/03/05 08:29:01;;;;;;;55.00;25.90;;;;;;;6.89;84.75;98358.47;4951083;28;104186;-61
2024/03/05 08:31:29;;;;;;;43.17;21.80;;;;;;;6.46;85.32;98355.63;4945704;28;103966;-61
2024/03/05 08:33:59;;;;;;;39.75;18.77;;;;;;;6.49;85.10;98358.94;4923515;28;104225;-61
2024/03/05 08:36:30;;;;;;;24.90;12.25;;;;;;;6.40;83.85;98356.22;4948041;28;103813;-61
2024/03/05 08:38:58;;;;;;;21.95;10.13;;;;;;;6.51;83.92;98349.94;4945743;28;102672;-61
2024/03/05 08:41:28;;;;;;;17.80;9.90;;;;;;;6.78;83.48;98353.44;4947787;28;103189;-60
2024/03/05 08:43:56;;;;;;;17.80;10.18;;;;;;;6.74;83.69;98350.28;4949606;28;103307;-61
2024/03/05 08:46:24;;;;;;;17.65;9.65;;;;;;;6.96;83.20;98361.31;4930150;28;103549;-60
2024/03/05 08:48:52;;;;;;;15.63;8.75;;;;;;;7.06;83.36;98348.88;4935315;28;102738;-60
2024/03/05 08:51:20;;;;;;;18.13;8.60;;;;;;;7.08;83.93;98354.81;4949668;28;102770;-61
2024/03/05 08:53:48;;;;;;;14.52;7.68;;;;;;;7.21;83.31;98359.66;4931632;28;106136;-61
2024/03/05 08:56:16;;;;;;;14.65;8.52;;;;;;;7.01;82.83;98359.03;4949758;28;103449;-61
2024/03/05 08:58:45;;;;;;;15.07;8.52;;;;;;;7.06;82.92;98356.78;4928629;28;102987;-60
2024/03/05 09:01:16;;;;;;;15.75;8.45;;;;;;;7.21;82.37;98358.84;4946833;28;103285;-61
2024/03/05 09:03:44;;;;;;;14.63;8.05;;;;;;;7.13;82.62;98367.53;4950863;28;103248;-60
2024/03/05 09:06:13;;;;;;;14.90;8.40;;;;;;;7.10;81.80;98368.66;4945677;28;103558;-60
2024/03/05 09:08:41;;;;;;;13.68;8.45;;;;;;;7.10;81.68;98360.75;4932238;28;102742;-61
2024/03/05 09:11:13;;;;;;;12.45;7.60;;;;;;;7.28;81.67;98365.97;4703725;28;10000584;-60
2024/03/05 09:13:47;;;;;;;17.10;9.23;;;;;;;7.13;81.39;98357.81;4425365;28;10001403;-60
2024/03/05 09:16:20;;;;;;;15.98;8.38;;;;;;;7.19;81.08;98356.38;4948144;28;103777;-60
2024/03/05 09:18:48;;;;;;;15.45;7.45;;;;;;;7.35;81.79;98366.19;4945086;28;103470;-60
2024/03/05 09:21:18;;;;;;;13.17;8.17;;;;;;;7.39;81.27;98370.16;4045962;28;10000787;-61
2024/03/05 09:23:46;;;;;;;11.80;8.00;;;;;;;7.41;81.36;98370.81;4918027;28;105637;-60
2024/03/05 09:26:15;;;;;;;13.65;7.25;;;;;;;7.43;81.06;98368.84;4936628;28;102946;-60
2024/03/05 09:28:42;;;;;;;12.02;7.10;;;;;;;7.50;81.50;98373.50;4938415;28;103740;-59
2024/03/05 09:31:12;;;;;;;11.68;7.32;;;;;;;7.43;80.78;98366.22;4928195;28;106452;-60
2024/03/05 09:33:43;;;;;;;13.02;7.50;;;;;;;7.29;80.94;98377.31;4660107;28;10000962;-60
2024/03/05 09:36:12;;;;;;;13.45;7.47;;;;;;;7.25;80.87;98373.34;4410235;28;10001041;-60
2024/03/05 09:38:54;;;;;;;11.02;6.03;;;;;;;7.50;81.12;98366.41;4927447;28;104024;-60
2024/03/05 09:42:04;;;;;;;11.82;7.15;;;;;;;7.33;80.72;98373.41;4919877;28;104713;-60
2024/03/05 09:45:12;;;;;;;12.75;7.40;;;;;;;7.31;80.64;98372.75;4931785;28;102894;-60
2024/03/05 09:47:42;;;;;;;10.93;6.40;;;;;;;7.39;81.22;98375.41;4948540;28;108592;-61
2024/03/05 09:50:13;;;;;;;12.30;7.55;;;;;;;7.32;80.85;98376.19;4947166;28;103209;-61
2024/03/05 09:52:43;;;;;;;18.55;8.20;;;;;;;7.35;80.90;98381.16;4947136;28;102758;-61
2024/03/05 09:55:12;;;;;;;13.63;7.70;;;;;;;7.40;79.86;98381.50;4944152;28;102740;-65
2024/03/05 09:57:43;;;;;;;25.80;8.52;;;;;;;7.43;79.99;98373.31;4949492;28;103920;-65
2024/03/05 10:00:17;;;;;;;15.80;7.97;;;;;;;7.29;80.22;98382.59;4936024;28;103889;-61
2024/03/05 10:02:49;;;;;;;11.52;7.22;;;;;;;7.49;80.85;98377.94;4949592;28;102780;-61
2024/03/05 10:05:18;;;;;;;11.13;6.88;;;;;;;7.54;79.69;98375.66;4946594;28;102996;-61
2024/03/05 10:07:47;;;;;;;11.60;6.85;;;;;;;7.64;80.72;98375.56;4941763;28;103346;-61
2024/03/05 10:10:19;;;;;;;13.48;8.85;;;;;;;7.22;80.07;98377.13;4941993;28;103376;-61
2024/03/05 10:12:49;;;;;;;10.88;7.30;;;;;;;7.44;80.78;98374.94;4943065;28;102676;-61
2024/03/05 10:15:20;;;;;;;12.27;7.18;;;;;;;7.52;80.51;98382.06;4945189;28;103115;-61
2024/03/05 10:17:52;;;;;;;15.52;9.48;;;;;;;7.59;79.84;98377.84;4948756;28;105270;-62
2024/03/05 10:20:26;;;;;;;15.65;9.38;;;;;;;7.64;79.49;98383.47;4928446;28;105237;-60
2024/03/05 10:22:55;;;;;;;14.18;8.93;;;;;;;7.62;80.02;98378.34;4944761;28;102644;-60
2024/03/05 10:25:24;;;;;;;15.20;9.27;;;;;;;7.71;79.76;98384.47;4932791;28;102938;-60
2024/03/05 10:27:52;;;;;;;16.55;9.85;;;;;;;7.46;81.26;98392.25;4944166;28;103370;-60
2024/03/05 10:30:25;;;;;;;16.23;10.48;;;;;;;7.72;81.66;98388.78;4942559;28;103243;-60
2024/03/05 10:32:59;;;;;;;18.63;10.23;;;;;;;7.74;80.56;98386.81;4948823;28;102736;-59
2024/03/05 10:35:29;;;;;;;16.53;10.13;;;;;;;7.85;80.80;98392.75;4067232;28;10000588;-60
2024/03/05 10:38:02;;;;;;;14.27;9.07;;;;;;;7.95;80.43;98388.19;4950338;28;102651;-60
2024/03/05 10:40:34;;;;;;;13.68;9.85;;;;;;;8.00;79.18;98401.75;4927248;28;104123;-61
2024/03/05 10:43:07;;;;;;;12.50;8.50;;;;;;;7.92;78.83;98399.06;4946967;28;103165;-61
2024/03/05 10:45:37;;;;;;;13.02;8.10;;;;;;;7.82;78.50;98401.00;4924768;28;107876;-61
2024/03/05 10:48:09;;;;;;;14.48;7.28;;;;;;;7.69;77.78;98394.38;4936772;28;103285;-60
2024/03/05 10:50:40;;;;;;;9.40;6.30;;;;;;;7.78;77.52;98393.41;4947790;28;102728;-61
2024/03/05 10:53:12;;;;;;;8.27;5.40;;;;;;;7.98;77.56;98401.09;4940999;28;103828;-60
2024/03/05 10:55:44;;;;;;;9.98;6.53;;;;;;;7.96;77.24;98395.97;4944069;28;103554;-61
2024/03/05 10:58:36;;;;;;;9.15;6.32;;;;;;;7.92;76.66;98394.63;4939588;28;102665;-61
2024/03/05 11:01:08;;;;;;;13.57;6.40;;;;;;;7.87;77.96;98399.53;4942038;28;103075;-64
2024/03/05 11:03:40;;;;;;;12.13;7.13;;;;;;;8.22;76.84;98400.34;4943526;28;108597;-64
2024/03/05 11:06:10;;;;;;;9.05;5.55;;;;;;;8.10;76.16;98402.44;4942050;28;105515;-64
2024/03/05 11:08:38;;;;;;;12.85;7.43;;;;;;;8.12;76.42;98395.22;4949541;28;102749;-64
2024/03/05 11:11:12;;;;;;;10.07;6.57;;;;;;;8.28;76.21;98386.50;4934571;28;103676;-64
2024/03/05 11:13:41;;;;;;;11.90;7.40;;;;;;;8.47;76.69;98397.78;4912566;28;109588;-64
2024/03/05 11:16:10;;;;;;;8.05;5.50;;;;;;;8.55;76.07;98402.25;4940819;28;103264;-63
2024/03/05 11:18:44;;;;;;;8.43;5.50;;;;;;;8.53;74.68;98396.31;4938783;28;102977;-63
2024/03/05 11:21:14;;;;;;;8.20;5.00;;;;;;;8.21;74.52;98397.88;4936332;28;102856;-64
2024/03/05 11:23:44;;;;;;;8.88;5.50;;;;;;;8.07;75.42;98397.50;4945822;28;103859;-64
2024/03/05 11:26:18;;;;;;;9.43;5.72;;;;;;;8.20;74.74;98401.47;4948093;28;103249;-61
2024/03/05 11:28:46;;;;;;;8.80;5.00;;;;;;;8.42;75.54;98398.25;4941028;28;103656;-64
2024/03/05 11:31:19;;;;;;;8.13;4.43;;;;;;;8.50;75.02;98401.91;4944863;28;104566;-64
2024/03/05 11:34:10;;;;;;;5.80;4.10;;;;;;;8.54;74.00;98404.09;4941059;28;108874;-64
2024/03/05 11:36:41;;;;;;;7.78;4.20;;;;;;;8.61;74.14;98398.97;4920896;28;107751;-65
2024/03/05 11:39:14;;;;;;;5.97;2.97;;;;;;;8.59;73.46;98399.16;4945115;28;102760;-63
2024/03/05 11:41:44;;;;;;;5.50;3.10;;;;;;;8.45;72.30;98389.19;4947515;28;103071;-64
2024/03/05 11:44:37;;;;;;;5.63;3.20;;;;;;;8.50;72.53;98397.47;4943664;28;104777;-64
2024/03/05 11:47:05;;;;;;;5.53;2.88;;;;;;;8.46;72.60;98396.13;4943121;28;103373;-64
2024/03/05 11:49:37;;;;;;;6.50;2.95;;;;;;;8.41;71.29;98393.13;4941627;28;104158;-64